createdAt,value
2018-03-20T17:18:34.887Z,31.30
2018-03-20T17:21:02.382Z,31.30
2018-03-20T17:23:29.899Z,30.90
2018-03-20T17:25:58.259Z,30.80
2018-03-20T17:28:26.617Z,31.00
2018-03-20T17:30:54.149Z,31.00
2018-03-20T17:33:21.676Z,31.40
2018-03-20T17:35:49.967Z,31.80
2018-03-20T17:38:17.515Z,31.70
2018-03-20T17:40:45.063Z,32.10
2018-03-20T17:43:12.872Z,33.00
2018-03-20T17:45:40.410Z,34.30
2018-03-20T17:48:08.696Z,34.40
2018-03-20T17:50:39.332Z,34.40
2018-03-20T17:53:07.710Z,35.00
2018-03-20T17:55:35.279Z,35.00
2018-03-20T17:58:02.828Z,35.70
2018-03-20T18:00:30.375Z,36.00
2018-03-20T18:02:58.679Z,37.80
2018-03-20T18:05:26.275Z,37.80
2018-03-20T18:07:53.791Z,39.70
2018-03-20T18:10:25.162Z,41.50
2018-03-20T18:12:52.684Z,41.40
2018-03-20T18:15:20.283Z,42.40
2018-03-20T18:17:47.851Z,42.20
2018-03-20T18:20:15.397Z,42.80
2018-03-20T18:22:43.210Z,43.40
2018-03-20T18:25:10.735Z,44.20
2018-03-20T18:27:38.268Z,44.50
2018-03-20T18:30:05.797Z,44.80
2018-03-20T18:32:34.076Z,45.60
2018-03-20T18:35:02.376Z,44.90
2018-03-20T18:37:30.065Z,44.80
2018-03-20T18:39:57.617Z,46.10
2018-03-20T18:42:25.288Z,45.90
2018-03-20T18:44:52.806Z,46.20
2018-03-20T18:47:21.142Z,46.40
2018-03-20T18:49:48.729Z,46.40
2018-03-20T18:52:17.690Z,47.10
2018-03-20T18:54:46.540Z,47.50
2018-03-20T18:57:15.479Z,47.90
2018-03-20T18:59:43.018Z,47.80
2018-03-20T19:02:10.556Z,48.00
2018-03-20T19:04:38.087Z,48.00
2018-03-20T19:07:05.739Z,48.10
2018-03-20T19:09:33.348Z,48.20
2018-03-20T19:12:00.903Z,48.40
2018-03-20T19:14:28.434Z,48.70
2018-03-20T19:16:56.077Z,48.50
2018-03-20T19:19:23.615Z,48.60
2018-03-20T19:21:51.364Z,48.80
2018-03-20T19:24:19.738Z,49.40
2018-03-20T19:26:47.296Z,49.40
2018-03-20T19:29:14.944Z,48.90
2018-03-20T19:31:42.500Z,49.70
2018-03-20T19:34:10.027Z,49.90
2018-03-20T19:36:37.607Z,49.90
2018-03-20T19:39:05.160Z,49.90
2018-03-20T19:41:32.787Z,50.30
2018-03-20T19:44:00.319Z,50.40
2018-03-20T19:46:27.901Z,50.70
2018-03-20T19:48:55.612Z,51.70
2018-03-20T19:51:23.177Z,51.00
2018-03-20T19:53:50.711Z,51.10
2018-03-20T19:56:19.231Z,51.30
2018-03-20T19:58:47.628Z,51.40
2018-03-20T20:01:15.948Z,52.20
2018-03-20T20:03:43.462Z,51.50
2018-03-20T20:06:11.016Z,52.20
2018-03-20T20:08:38.659Z,52.40
2018-03-20T20:11:06.256Z,52.60
2018-03-20T20:13:33.788Z,52.70
2018-03-20T20:16:01.476Z,52.70
2018-03-20T20:18:29.138Z,53.00
2018-03-20T20:20:57.485Z,53.50
2018-03-20T20:23:25.060Z,53.50
2018-03-20T20:25:52.606Z,53.60
2018-03-20T20:28:20.144Z,53.80
2018-03-20T20:30:47.705Z,53.90
2018-03-20T20:33:15.261Z,54.20
2018-03-20T20:35:42.905Z,54.40
2018-03-20T20:38:10.480Z,54.60
2018-03-20T20:40:38.651Z,54.90
2018-03-20T20:43:06.201Z,55.20
2018-03-20T20:45:33.768Z,55.20
2018-03-20T20:48:01.345Z,55.60
2018-03-20T20:50:28.869Z,56.00
2018-03-20T20:52:57.172Z,56.50
2018-03-20T20:55:24.708Z,56.50
2018-03-20T20:57:53.013Z,56.90
2018-03-20T21:00:20.559Z,56.80
2018-03-20T21:02:48.092Z,57.00
2018-03-20T21:05:15.654Z,57.10
2018-03-20T21:07:43.961Z,57.60
2018-03-20T21:10:11.498Z,57.60
2018-03-20T21:12:39.772Z,57.30
2018-03-20T21:15:07.291Z,57.30
2018-03-20T21:17:34.830Z,57.40
2018-03-20T21:20:03.064Z,57.60
2018-03-20T21:22:30.614Z,57.60
2018-03-20T21:24:58.712Z,57.50
2018-03-20T21:27:27.153Z,57.60
2018-03-20T21:29:54.672Z,57.50
2018-03-20T21:32:22.209Z,57.60
2018-03-20T21:34:49.773Z,57.50
2018-03-20T21:37:17.349Z,57.50
2018-03-20T21:39:44.868Z,57.50
2018-03-20T21:42:12.445Z,57.50
2018-03-20T21:44:40.745Z,58.10
2018-03-20T21:47:08.282Z,58.10
2018-03-20T21:49:38.414Z,58.70
2018-03-20T21:52:05.960Z,58.50
2018-03-20T21:54:33.511Z,58.60
2018-03-20T21:57:01.041Z,58.60
2018-03-20T21:59:28.553Z,58.90
2018-03-20T22:01:56.071Z,58.90
2018-03-20T22:04:23.583Z,59.10
2018-03-20T22:06:51.959Z,60.20
2018-03-20T22:09:20.256Z,61.80
2018-03-20T22:11:47.777Z,61.80
2018-03-20T22:14:15.355Z,62.60
2018-03-20T22:16:42.894Z,63.30
2018-03-20T22:19:10.656Z,63.20
2018-03-20T22:21:38.191Z,63.30
2018-03-20T22:24:05.715Z,64.30
2018-03-20T22:26:33.240Z,64.50
2018-03-20T22:29:00.756Z,64.90
2018-03-20T22:31:28.289Z,65.10
2018-03-20T22:33:55.818Z,65.50
2018-03-20T22:36:23.347Z,65.50
2018-03-20T22:38:50.900Z,65.50
2018-03-20T22:41:18.420Z,65.90
2018-03-20T22:43:45.986Z,66.60
2018-03-20T22:46:14.304Z,67.20
2018-03-20T22:48:41.869Z,67.20
2018-03-20T22:51:09.405Z,67.10
2018-03-20T22:53:36.934Z,67.30
2018-03-20T22:56:04.455Z,67.90
2018-03-20T22:58:31.975Z,68.20
2018-03-20T23:01:00.264Z,68.50
2018-03-20T23:03:27.789Z,68.50
2018-03-20T23:05:56.124Z,69.30
2018-03-20T23:08:23.639Z,69.30
2018-03-20T23:10:51.932Z,69.70
2018-03-20T23:13:19.466Z,69.60
2018-03-20T23:15:46.988Z,69.40
2018-03-20T23:18:14.547Z,69.90
2018-03-20T23:20:42.085Z,70.20
2018-03-20T23:23:09.605Z,70.20
2018-03-20T23:25:37.124Z,70.30
2018-03-20T23:28:04.881Z,70.80
2018-03-20T23:30:32.412Z,71.80
2018-03-20T23:32:59.947Z,72.20
2018-03-20T23:35:27.498Z,72.20
2018-03-20T23:37:55.041Z,72.20
2018-03-20T23:40:22.611Z,73.00
2018-03-20T23:42:50.190Z,73.00
2018-03-20T23:45:17.716Z,73.70
2018-03-20T23:47:45.288Z,74.40
2018-03-20T23:50:12.828Z,74.70
2018-03-20T23:52:40.356Z,74.00
2018-03-20T23:55:08.643Z,74.70
2018-03-20T23:57:36.178Z,74.70
